Time;durP1;ratioP1;P1;durP2;ratioP2;P2;SDS_P1;SDS_P2;PMS_P1;PMS_P2;Temp;Humidity;BMP_temperature;BMP_pressure;BME280_temperature;BME280_humidity;BME280_pressure;Samples;Min_cycle;Max_cycle;Signal;HPM_P1;HPM_P2
2023/01/16 00:02:25;;;;;;;1.35;0.60;;;7.40;99.90;;;7.18;100.00;99304.66;5239933;28;20060;-79
2023/01/16 00:04:58;;;;;;;1.25;0.55;;;7.40;99.90;;;7.17;100.00;99297.72;5235792;28;20411;-79
2023/01/16 00:07:30;;;;;;;0.98;0.47;;;7.40;99.90;;;7.10;100.00;99288.03;5234261;28;20056;-79
2023/01/16 00:10:02;;;;;;;1.70;0.60;;;7.30;99.90;;;7.07;100.00;99285.38;5249452;28;20060;-80
2023/01/16 00:12:34;;;;;;;1.02;0.40;;;7.30;99.90;;;7.05;100.00;99287.06;5248487;28;20052;-79
2023/01/16 00:15:07;;;;;;;0.95;0.60;;;7.30;99.90;;;7.02;100.00;99284.38;5234171;28;20115;-79
2023/01/16 00:17:40;;;;;;;1.80;0.43;;;7.20;99.90;;;7.02;100.00;99269.69;5245341;28;20050;-79
2023/01/16 00:20:13;;;;;;;1.52;0.73;;;7.20;99.90;;;6.99;100.00;99263.59;5228227;28;20123;-79
2023/01/16 00:22:45;;;;;;;1.73;0.68;;;7.20;99.90;;;7.00;100.00;99257.56;5248111;28;20041;-79
2023/01/16 00:25:17;;;;;;;0.93;0.60;;;7.20;99.90;;;6.98;100.00;99256.66;5232995;28;20045;-79
2023/01/16 00:27:49;;;;;;;0.50;0.50;;;7.10;99.90;;;6.99;100.00;99251.50;5231154;28;20479;-80
2023/01/16 00:30:22;;;;;;;1.63;0.80;;;7.20;99.90;;;7.02;100.00;99248.09;5251564;28;20045;-80
2023/01/16 00:32:56;;;;;;;0.82;0.55;;;7.20;99.90;;;6.99;100.00;99237.69;5233992;28;20041;-79
2023/01/16 00:35:28;;;;;;;0.75;0.70;;;7.20;99.90;;;7.01;100.00;99239.47;5234499;28;20131;-80
2023/01/16 00:38:00;;;;;;;2.28;0.57;;;7.20;99.90;;;6.98;100.00;99238.53;5251007;28;20045;-80
2023/01/16 00:40:32;;;;;;;0.63;0.50;;;7.20;99.90;;;6.95;100.00;99241.91;5232922;28;20055;-79
2023/01/16 00:43:04;;;;;;;2.38;0.52;;;7.20;99.90;;;6.93;100.00;99228.03;5250355;28;20094;-79
2023/01/16 00:45:36;;;;;;;1.13;0.55;;;7.10;99.90;;;6.92;100.00;99215.06;5236386;28;20103;-79
2023/01/16 00:48:10;;;;;;;2.40;0.80;;;7.10;99.90;;;6.86;100.00;99228.72;5237032;28;20074;-79
2023/01/16 00:50:42;;;;;;;1.05;0.47;;;7.10;99.90;;;6.82;100.00;99221.72;5236442;28;20072;-79
2023/01/16 00:53:14;;;;;;;1.17;0.60;;;7.10;99.90;;;6.82;100.00;99221.72;5234021;28;20048;-79
2023/01/16 00:55:46;;;;;;;2.45;0.45;;;7.00;99.90;;;6.79;100.00;99208.72;5229455;28;20052;-80
2023/01/16 00:58:18;;;;;;;1.48;0.52;;;7.00;99.90;;;6.76;100.00;99198.25;5236860;28;20045;-79
2023/01/16 01:00:50;;;;;;;2.10;0.70;;;7.00;99.90;;;6.74;100.00;99200.81;5238244;28;20037;-79
2023/01/16 01:03:23;;;;;;;2.05;0.63;;;6.90;99.90;;;6.75;100.00;99205.16;5237411;28;20045;-79
2023/01/16 01:05:55;;;;;;;1.02;0.60;;;7.00;99.90;;;6.76;100.00;99198.25;5252934;28;20053;-79
2023/01/16 01:08:27;;;;;;;1.40;0.60;;;7.00;99.90;;;6.78;100.00;99192.28;5237374;28;20159;-79
2023/01/16 01:11:07;;;;;;;1.58;0.68;;;7.00;99.90;;;6.80;100.00;99194.91;5238433;28;20045;-79
2023/01/16 01:13:40;;;;;;;1.00;0.52;;;7.00;99.90;;;6.84;100.00;99190.66;5255460;28;20063;-79
2023/01/16 01:16:13;;;;;;;0.88;0.40;;;7.00;99.90;;;6.85;100.00;99193.31;5237443;28;20055;-79
2023/01/16 01:18:46;;;;;;;1.20;0.70;;;7.00;99.90;;;6.86;100.00;99184.69;5237697;28;20056;-79
2023/01/16 01:21:18;;;;;;;1.58;0.70;;;7.10;99.90;;;6.86;100.00;99176.06;5237475;28;20052;-80
2023/01/16 01:23:50;;;;;;;1.92;0.60;;;7.10;99.90;;;6.87;100.00;99170.03;5237193;28;20048;-79
2023/01/16 01:26:22;;;;;;;1.27;0.73;;;7.10;99.90;;;6.83;100.00;99163.03;5239807;28;20045;-79
2023/01/16 01:28:54;;;;;;;1.50;0.47;;;7.00;99.90;;;6.85;100.00;99162.25;5237705;28;20060;-78
2023/01/16 01:31:26;;;;;;;2.17;0.57;;;7.00;99.90;;;6.87;100.00;99160.56;5236591;28;20041;-79
2023/01/16 01:33:59;;;;;;;1.60;0.52;;;7.00;99.90;;;7.01;100.00;99147.91;5237053;28;20495;-78
2023/01/16 01:36:31;;;;;;;0.32;0.32;;;7.10;99.90;;;6.98;100.00;99142.69;5239161;28;20048;-79
2023/01/16 01:39:04;;;;;;;2.95;0.68;;;7.10;99.90;;;6.96;100.00;99139.16;5235897;28;20052;-79
2023/01/16 01:41:36;;;;;;;0.73;0.50;;;7.10;99.90;;;6.88;100.00;99130.34;5242219;28;20075;-79
2023/01/16 01:44:49;;;;;;;2.35;0.43;;;7.10;99.90;;;6.85;100.00;99118.22;5243755;28;20060;-80
2023/01/16 01:47:27;;;;;;;1.63;0.60;;;7.10;99.90;;;6.86;100.00;99121.66;5243245;28;20053;-79
2023/01/16 01:50:06;;;;;;;0.75;0.35;;;7.10;99.90;;;6.84;100.00;99112.97;5258349;28;20033;-79
2023/01/16 01:52:38;;;;;;;0.20;0.20;;;7.00;99.90;;;6.80;100.00;99105.16;5246572;28;20052;-79
2023/01/16 01:55:13;;;;;;;2.35;0.40;;;7.00;99.90;;;6.82;100.00;99104.28;5246739;28;20112;-79
2023/01/16 01:57:52;;;;;;;0.55;0.40;;;7.00;99.90;;;6.79;100.00;99099.94;5242689;28;20059;-80
2023/01/16 02:00:27;;;;;;;1.60;0.45;;;7.00;99.90;;;6.79;100.00;99098.22;5240229;28;20497;-79
2023/01/16 02:03:07;;;;;;;0.93;0.75;;;7.00;99.90;;;6.82;100.00;99087.03;5254553;28;20418;-80
2023/01/16 02:05:45;;;;;;;0.65;0.50;;;7.00;99.90;;;6.78;100.00;99068.00;5237761;28;20103;-79
2023/01/16 02:08:20;;;;;;;0.88;0.57;;;7.00;99.90;;;6.77;100.00;99065.34;5228095;28;20109;-80
2023/01/16 02:10:54;;;;;;;;;;;7.00;99.90;;;6.74;100.00;99058.38;5236800;28;20041;-78
2023/01/16 02:13:26;;;;;;;2.38;0.38;;;6.90;99.90;;;6.74;100.00;99060.97;5236985;28;19920;-79
2023/01/16 02:22:37;;;;;;;0.82;0.20;;;6.90;99.90;;;6.75;100.00;99046.31;5236020;28;20507;-79
2023/01/16 02:26:19;;;;;;;1.08;0.60;;;6.90;99.90;;;6.77;100.00;99029.97;5237973;28;20037;-80
2023/01/16 02:29:49;;;;;;;0.22;0.22;;;6.90;99.90;;;6.76;100.00;99017.84;5236468;28;20053;-79
2023/01/16 02:32:44;;;;;;;0.30;0.30;;;6.90;99.90;;;6.73;100.00;99007.44;5157045;28;20046;-79
2023/01/16 02:35:47;;;;;;;1.20;0.40;;;6.90;99.90;;;6.72;100.00;99002.25;5252855;23;20056;-65
2023/01/16 02:38:30;;;;;;;0.32;0.32;;;6.90;99.90;;;6.72;100.00;98995.34;5212871;28;20112;-65
2023/01/16 02:41:16;;;;;;;1.58;0.40;;;6.90;99.90;;;6.72;100.00;98987.59;5204870;28;20045;-65
2023/01/16 02:43:58;;;;;;;3.33;0.57;;;6.90;99.90;;;6.72;100.00;98985.00;5205170;28;20123;-65
2023/01/16 02:46:36;;;;;;;0.75;0.40;;;6.90;99.90;;;6.73;100.00;98983.28;5204781;28;20045;-65
2023/01/16 02:49:16;;;;;;;0.32;0.32;;;6.90;99.90;;;6.70;100.00;98973.72;5204986;28;20041;-65
2023/01/16 02:51:59;;;;;;;1.15;0.32;;;6.90;99.90;;;6.68;100.00;98965.03;5204995;28;20124;-63
2023/01/16 02:54:40;;;;;;;0.50;0.45;;;6.80;99.90;;;6.68;100.00;98957.28;5204729;28;20052;-63
2023/01/16 02:57:18;;;;;;;0.65;0.50;;;6.90;99.90;;;6.65;100.00;98949.47;5204771;28;20409;-65
2023/01/16 02:59:51;;;;;;;3.03;0.50;;;6.80;99.90;;;6.63;100.00;98942.47;5204615;28;20054;-65
2023/01/16 03:02:23;;;;;;;0.35;0.32;;;6.80;99.90;;;6.58;100.00;98932.03;5204810;28;20046;-65
2023/01/16 03:04:57;;;;;;;2.00;0.40;;;6.80;99.90;;;6.56;100.00;98923.34;5204287;28;20402;-65
2023/01/16 03:08:21;;;;;;;0.55;0.32;;;6.80;99.90;;;6.52;100.00;98900.84;5204101;28;20056;-65
2023/01/16 03:11:12;;;;;;;0.75;0.63;;;6.70;99.90;;;6.43;100.00;98892.88;5204377;28;20049;-65
2023/01/16 03:14:02;;;;;;;1.30;0.60;;;6.70;99.90;;;6.35;100.00;98894.44;5204558;28;20484;-64
2023/01/16 03:16:43;;;;;;;0.70;0.70;;;6.60;99.90;;;6.28;100.00;98883.09;5203146;28;20057;-65
2023/01/16 03:19:28;;;;;;;0.90;0.40;;;6.60;99.90;;;6.22;100.00;98872.59;5204539;28;20498;-65
2023/01/16 03:22:13;;;;;;;1.58;0.55;;;6.50;99.90;;;6.18;100.00;98858.72;5204551;28;20041;-65
2023/01/16 03:25:04;;;;;;;1.23;0.50;;;6.50;99.90;;;6.16;100.00;98857.81;5204512;28;20049;-64
2023/01/16 03:27:46;;;;;;;2.30;0.70;;;6.40;99.90;;;6.14;100.00;98853.47;5228395;28;20547;-65
2023/01/16 03:30:29;;;;;;;1.05;0.63;;;6.40;99.90;;;6.09;100.00;98844.72;5224851;28;20083;-65
2023/01/16 03:33:06;;;;;;;1.58;0.50;;;6.40;99.90;;;6.05;100.00;98836.03;5224787;28;20145;-64
2023/01/16 03:35:48;;;;;;;2.70;0.60;;;6.40;99.90;;;6.02;100.00;98830.78;5224912;28;20052;-64
2023/01/16 03:38:24;;;;;;;2.17;0.60;;;6.30;99.90;;;5.99;100.00;98822.94;5225189;28;20059;-64
2023/01/16 03:41:00;;;;;;;2.13;0.63;;;6.30;99.90;;;5.94;100.00;98824.59;5224727;28;20055;-63
2023/01/16 03:43:37;;;;;;;1.33;0.70;;;6.30;99.90;;;5.93;100.00;98826.31;5224367;28;20041;-64
2023/01/16 03:46:12;;;;;;;2.47;0.43;;;6.30;99.90;;;5.93;100.00;98822.81;5224811;28;20501;-64
2023/01/16 03:48:49;;;;;;;2.58;0.50;;;6.20;99.90;;;5.95;100.00;98809.09;5224738;28;20464;-64
2023/01/16 03:51:27;;;;;;;1.85;0.50;;;6.30;99.90;;;5.99;100.00;98807.44;5224674;28;20058;-64
2023/01/16 03:54:07;;;;;;;3.03;0.60;;;6.30;99.90;;;6.02;100.00;98804.94;5224619;28;20044;-64
2023/01/16 03:56:47;;;;;;;0.68;0.50;;;6.30;99.90;;;6.07;100.00;98800.75;5224600;28;20041;-64
2023/01/16 03:59:20;;;;;;;2.08;0.60;;;6.30;99.90;;;6.09;100.00;98793.88;5224250;28;20051;-64
2023/01/16 04:01:57;;;;;;;2.95;0.63;;;6.30;99.90;;;6.08;100.00;98776.63;5225710;28;20520;-64
2023/01/16 04:04:37;;;;;;;1.17;0.45;;;6.40;99.90;;;6.06;100.00;98773.09;5224447;28;20049;-63
2023/01/16 04:07:14;;;;;;;1.85;0.50;;;6.30;99.90;;;6.03;100.00;98762.72;5224313;28;20401;-64
2023/01/16 04:09:53;;;;;;;2.78;0.60;;;6.30;99.90;;;6.06;100.00;98747.25;5239517;28;20073;-64
2023/01/16 04:12:30;;;;;;;1.73;0.63;;;6.30;99.90;;;6.08;100.00;98742.13;5224534;28;20045;-63
2023/01/16 04:15:06;;;;;;;2.92;0.55;;;6.30;99.90;;;6.05;100.00;98722.22;5224682;28;20450;-63
2023/01/16 04:17:40;;;;;;;1.23;0.68;;;6.30;99.90;;;6.08;100.00;98719.72;5226735;28;20041;-64
2023/01/16 04:20:14;;;;;;;3.60;1.55;;;6.40;99.90;;;6.12;100.00;98705.97;5228514;28;20041;-64
2023/01/16 04:22:49;;;;;;;2.95;1.98;;;6.40;99.90;;;6.11;100.00;98704.25;5228707;28;20409;-64
2023/01/16 04:25:23;;;;;;;;;;;6.40;99.90;;;6.13;100.00;98700.00;5229550;28;20049;-64
2023/01/16 04:27:55;;;;;;;2.72;0.70;;;6.40;99.90;;;6.10;100.00;98686.97;5228523;28;19942;-64
2023/01/16 04:30:27;;;;;;;3.30;1.05;;;6.40;99.90;;;6.09;100.00;98668.84;5228172;28;20519;-63
2023/01/16 04:33:02;;;;;;;4.38;1.17;;;6.40;99.90;;;6.09;100.00;98661.97;5228534;28;20040;-63
2023/01/16 04:35:35;;;;;;;1.38;0.88;;;6.40;99.90;;;6.11;100.00;98656.81;5228273;28;20501;-63
2023/01/16 04:38:07;;;;;;;2.25;1.00;;;6.40;99.90;;;6.08;100.00;98647.28;5228054;28;20041;-63
2023/01/16 04:40:41;;;;;;;1.60;0.77;;;6.40;99.90;;;6.08;100.00;98636.06;5228291;28;20052;-63
2023/01/16 04:43:13;;;;;;;4.80;1.95;;;6.40;99.90;;;6.05;100.00;98630.84;5243907;28;20135;-63
2023/01/16 04:45:47;;;;;;;4.35;1.70;;;6.30;99.90;;;6.03;100.00;98615.28;5228414;28;20120;-64
2023/01/16 04:48:19;;;;;;;5.95;3.38;;;6.30;99.90;;;5.96;100.00;98605.69;5227954;28;20047;-64
2023/01/16 04:50:52;;;;;;;4.78;2.45;;;6.30;99.90;;;5.96;100.00;98601.38;5227705;28;20078;-64
2023/01/16 04:53:24;;;;;;;4.30;2.38;;;6.30;99.90;;;5.98;100.00;98588.47;5228001;28;20061;-64
2023/01/16 04:55:57;;;;;;;4.55;1.60;;;6.30;99.90;;;5.99;100.00;98578.16;5228075;28;20049;-63
2023/01/16 04:58:29;;;;;;;6.10;1.98;;;6.30;99.90;;;5.96;100.00;98569.47;5227842;28;20112;-63
2023/01/16 05:01:02;;;;;;;5.13;1.63;;;6.30;99.90;;;5.96;100.00;98570.34;5227917;28;20573;-64
2023/01/16 05:03:35;;;;;;;3.25;1.67;;;6.30;99.90;;;6.01;100.00;98551.47;5227910;28;20115;-62
2023/01/16 05:06:08;;;;;;;2.70;1.20;;;6.30;99.90;;;6.03;100.00;98549.78;5228094;28;20052;-64
2023/01/16 05:08:41;;;;;;;2.85;1.02;;;6.30;99.90;;;6.10;100.00;98544.72;5227572;28;20048;-64
2023/01/16 05:11:15;;;;;;;3.08;1.08;;;6.30;99.90;;;6.10;100.00;98551.63;5227339;28;20040;-64
2023/01/16 05:13:49;;;;;;;1.50;0.93;;;6.40;99.90;;;6.10;100.00;98534.38;5227636;28;20041;-64
2023/01/16 05:16:21;;;;;;;1.65;0.80;;;6.40;99.90;;;6.13;100.00;98521.50;5227714;28;20049;-64
2023/01/16 05:18:53;;;;;;;1.52;0.65;;;6.40;99.90;;;6.17;100.00;98514.66;5227358;28;20036;-64
2023/01/16 05:21:26;;;;;;;2.45;1.40;;;6.50;99.90;;;6.14;100.00;98501.69;5227368;28;20404;-64
2023/01/16 05:23:58;;;;;;;2.20;1.05;;;6.40;99.90;;;6.15;100.00;98493.06;5227667;28;20049;-64
2023/01/16 05:26:33;;;;;;;2.70;1.55;;;6.40;99.90;;;6.16;100.00;98495.69;5226216;28;20051;-64
2023/01/16 05:29:05;;;;;;;1.63;1.02;;;6.50;99.90;;;6.21;100.00;98477.66;5224911;28;20052;-64
2023/01/16 05:31:38;;;;;;;0.90;0.80;;;6.50;99.90;;;6.23;100.00;98476.81;5226234;28;20127;-64
2023/01/16 05:34:10;;;;;;;2.67;0.63;;;6.50;99.90;;;6.21;100.00;98470.75;5226036;28;20410;-63
2023/01/16 05:36:43;;;;;;;0.93;0.50;;;6.50;99.90;;;6.23;100.00;98456.13;5227548;28;20055;-64
2023/01/16 05:39:15;;;;;;;1.27;0.82;;;6.50;99.90;;;6.22;100.00;98448.34;5226988;28;20045;-64
2023/01/16 05:41:48;;;;;;;0.75;0.52;;;6.50;99.90;;;6.24;100.00;98437.16;5227570;28;20040;-64
2023/01/16 05:44:21;;;;;;;2.00;0.60;;;6.50;99.90;;;6.23;100.00;98443.19;5227285;28;20072;-64
2023/01/16 05:46:53;;;;;;;0.63;0.40;;;6.50;99.90;;;6.23;100.00;98427.66;5227433;28;20135;-64
2023/01/16 05:49:25;;;;;;;0.55;0.55;;;6.50;99.90;;;6.27;100.00;98430.31;5227113;28;20049;-64
2023/01/16 05:51:58;;;;;;;0.52;0.52;;;6.50;99.90;;;6.27;100.00;98420.84;5225956;28;20068;-64
2023/01/16 05:54:30;;;;;;;2.20;0.60;;;6.60;99.90;;;6.28;100.00;98419.13;5227534;28;20036;-64
2023/01/16 05:57:03;;;;;;;1.40;0.70;;;6.50;99.90;;;6.28;100.00;98411.34;5227457;28;20086;-63
2023/01/16 05:59:35;;;;;;;1.13;0.63;;;6.60;99.90;;;6.30;100.00;98413.09;5227206;28;20040;-64
2023/01/16 06:02:07;;;;;;;4.28;0.68;;;6.60;99.90;;;6.30;100.00;98415.69;5227725;28;20041;-64
2023/01/16 06:04:41;;;;;;;1.45;0.60;;;6.60;99.90;;;6.34;100.00;98401.09;5227747;28;20079;-63
2023/01/16 06:07:14;;;;;;;1.50;0.47;;;6.60;99.90;;;6.39;100.00;98394.22;5227470;28;20103;-63
2023/01/16 06:09:46;;;;;;;2.20;0.70;;;6.60;99.90;;;6.43;100.00;98388.25;5226616;28;20049;-64
2023/01/16 06:12:21;;;;;;;1.08;0.90;;;6.70;99.90;;;6.40;100.00;98396.00;5227035;28;20051;-63
2023/01/16 06:14:54;;;;;;;1.00;0.82;;;6.70;99.90;;;6.40;100.00;98385.66;5226834;28;20029;-64
2023/01/16 06:17:26;;;;;;;1.50;0.73;;;6.60;99.90;;;6.44;100.00;98379.66;5226593;28;20045;-64
2023/01/16 06:19:59;;;;;;;2.13;0.75;;;6.70;99.90;;;6.41;100.00;98369.28;5226001;28;20400;-64
2023/01/16 06:22:31;;;;;;;1.67;0.63;;;6.70;99.90;;;6.44;100.00;98372.75;5226445;28;20586;-64
2023/01/16 06:25:04;;;;;;;4.28;1.00;;;6.70;99.90;;;6.43;100.00;98360.66;5226376;28;20045;-64
2023/01/16 06:27:39;;;;;;;3.25;0.85;;;6.70;99.90;;;6.42;100.00;98358.06;5226264;28;20055;-64
2023/01/16 06:30:12;;;;;;;1.38;0.90;;;6.70;99.90;;;6.42;100.00;98343.41;5224694;28;20056;-64
2023/01/16 06:32:46;;;;;;;1.70;0.80;;;6.70;99.90;;;6.40;100.00;98339.06;5226395;28;20068;-64
2023/01/16 06:35:18;;;;;;;2.33;0.90;;;6.60;99.90;;;6.41;100.00;98320.09;5225955;28;20060;-64
2023/01/16 06:37:50;;;;;;;1.02;0.98;;;6.70;99.90;;;6.39;100.00;98306.25;5226207;28;20087;-63
2023/01/16 06:40:22;;;;;;;1.00;0.88;;;6.70;99.90;;;6.36;100.00;98299.34;5225574;28;20127;-63
2023/01/16 06:42:56;;;;;;;1.92;1.13;;;;;;;6.28;100.00;98277.69;5225855;28;20049;-63
2023/01/16 06:45:29;;;;;;;4.30;1.17;;;;;;;6.30;100.00;98285.47;5226378;28;20045;-63
2023/01/16 06:48:01;;;;;;;1.55;1.08;;;6.60;99.90;;;6.33;100.00;98270.88;5225974;28;20044;-64
2023/01/16 06:50:35;;;;;;;3.25;1.20;;;6.60;99.90;;;6.36;100.00;98270.88;5241202;28;20132;-64
2023/01/16 06:53:07;;;;;;;1.75;1.00;;;6.60;99.90;;;6.37;100.00;98266.56;5225841;28;20044;-64
2023/01/16 06:55:41;;;;;;;3.22;0.98;;;6.60;99.90;;;6.40;100.00;98245.94;5225200;28;20041;-64
2023/01/16 06:58:14;;;;;;;1.70;1.17;;;6.70;99.90;;;6.36;100.00;98249.31;5225423;28;20040;-64
2023/01/16 07:00:50;;;;;;;2.58;1.05;;;6.60;99.90;;;6.39;100.00;98251.94;5225393;28;20049;-65
2023/01/16 07:03:24;;;;;;;0.98;0.82;;;6.70;99.90;;;6.36;100.00;98260.53;5225450;28;20057;-63
2023/01/16 07:05:56;;;;;;;2.42;1.00;;;6.70;99.90;;;6.41;100.00;98245.06;5224533;28;20072;-56
2023/01/16 07:08:28;;;;;;;2.15;1.35;;;6.70;99.90;;;6.44;100.00;98227.84;5225762;28;20049;-57
2023/01/16 07:11:00;;;;;;;1.30;0.80;;;6.70;99.90;;;6.50;100.00;98232.22;5225067;28;20555;-57
2023/01/16 07:13:34;;;;;;;1.67;0.73;;;6.70;99.90;;;6.48;100.00;98214.09;5227871;28;20250;-57
2023/01/16 07:24:40;;;;;;;1.48;0.55;;;6.70;99.90;;;6.41;100.00;98162.28;5224310;28;20048;-58
2023/01/16 07:27:12;;;;;;;0.80;0.73;;;6.70;99.90;;;6.43;100.00;98157.97;5224955;28;20045;-58
2023/01/16 07:29:45;;;;;;;4.43;0.90;;;6.70;99.90;;;6.44;100.00;98139.00;5222731;28;20119;-57
2023/01/16 07:32:17;;;;;;;1.63;1.05;;;6.70;99.90;;;6.40;100.00;98125.19;5224712;28;20060;-58
2023/01/16 07:34:49;;;;;;;3.35;1.00;;;6.70;99.90;;;6.42;100.00;98127.78;5221864;28;20036;-57
2023/01/16 07:37:22;;;;;;;3.05;0.80;;;6.70;99.90;;;6.41;100.00;98113.13;5223703;28;20052;-58
2023/01/16 07:39:54;;;;;;;3.15;0.98;;;6.70;99.90;;;6.48;100.00;98109.72;5223730;28;20056;-58
2023/01/16 07:42:26;;;;;;;2.05;0.80;;;6.70;99.90;;;6.49;100.00;98108.84;5224489;28;20502;-57
2023/01/16 07:44:59;;;;;;;0.88;0.77;;;6.70;99.90;;;6.49;100.00;98090.75;5222483;28;20033;-58
2023/01/16 07:47:31;;;;;;;1.27;0.70;;;6.70;99.90;;;6.45;100.00;98088.97;5222576;28;20045;-59
2023/01/16 07:50:04;;;;;;;1.73;0.60;;;6.70;99.90;;;6.48;100.00;98091.59;5231485;28;20084;-58
2023/01/16 07:52:36;;;;;;;2.17;0.90;;;6.70;99.90;;;6.48;100.00;98096.78;5221091;28;20044;-58
2023/01/16 07:55:09;;;;;;;1.30;0.73;;;6.70;99.90;;;6.48;100.00;98091.59;5223074;28;20529;-58
2023/01/16 07:57:41;;;;;;;4.82;0.80;;;6.80;99.90;;;6.43;100.00;98091.56;5223103;28;20048;-59
2023/01/16 08:00:16;;;;;;;2.35;0.80;;;6.70;99.90;;;6.40;100.00;98083.78;5232897;28;20478;-56
2023/01/16 08:02:48;;;;;;;2.28;0.82;;;6.80;99.90;;;6.43;100.00;98085.53;5223760;28;20049;-57
2023/01/16 08:05:20;;;;;;;1.15;0.50;;;6.70;99.90;;;6.38;100.00;98069.94;5224239;28;20037;-57
2023/01/16 08:07:52;;;;;;;2.58;0.82;;;6.70;99.90;;;6.37;100.00;98055.28;5227323;28;20053;-57
2023/01/16 08:10:24;;;;;;;1.65;0.70;;;6.70;99.90;;;6.40;100.00;98055.31;5223147;28;20098;-55
2023/01/16 08:12:56;;;;;;;2.85;0.80;;;6.70;99.90;;;6.36;100.00;98050.09;5223649;28;20040;-55
2023/01/16 08:15:30;;;;;;;5.25;0.88;;;6.70;99.90;;;6.39;100.00;98050.13;5223410;28;20037;-55
2023/01/16 08:18:02;;;;;;;1.42;0.93;;;6.70;99.90;;;6.38;100.00;98043.22;5222927;28;20148;-56
2023/01/16 08:20:34;;;;;;;2.17;0.63;;;6.60;99.90;;;6.36;100.00;98024.25;5223148;28;20041;-55
2023/01/16 08:23:06;;;;;;;4.85;0.70;;;6.60;99.90;;;6.41;100.00;98026.00;5224212;28;20060;-55
2023/01/16 08:25:39;;;;;;;4.78;0.75;;;6.70;99.90;;;6.35;100.00;98020.78;5224451;28;20045;-55
2023/01/16 08:28:11;;;;;;;3.25;0.90;;;6.60;99.90;;;6.30;100.00;98008.66;5223744;28;20045;-55
2023/01/16 08:30:44;;;;;;;1.40;0.60;;;6.60;99.90;;;6.29;100.00;98004.34;5223759;28;20053;-55
2023/01/16 08:33:16;;;;;;;2.05;0.63;;;6.60;99.90;;;6.29;100.00;98000.03;5224293;28;20529;-55
2023/01/16 08:35:48;;;;;;;3.85;1.13;;;6.60;99.90;;;6.31;100.00;97994.88;5245129;22;20045;-80
2023/01/16 08:38:20;;;;;;;3.60;0.57;;;6.60;99.90;;;6.29;100.00;97994.00;5224306;28;20048;-80
2023/01/16 08:40:52;;;;;;;2.13;0.63;;;6.60;99.90;;;6.28;100.00;97994.88;5216330;28;20055;-81
2023/01/16 08:52:17;;;;;;;0.85;0.63;;;6.40;99.90;;;6.19;100.00;97988.78;5128954;29;20052;-80
2023/01/16 08:54:50;;;;;;;1.73;0.50;;;6.50;99.90;;;6.23;100.00;97975.00;5123452;29;20044;-80
2023/01/16 08:57:22;;;;;;;0.90;0.50;;;6.50;99.90;;;6.17;100.00;97964.59;5149347;28;20050;-80
2023/01/16 08:59:55;;;;;;;2.70;1.00;;;6.50;99.90;;;6.18;100.00;97955.97;5192487;28;20405;-80
2023/01/16 09:02:29;;;;;;;1.40;0.73;;;6.50;99.90;;;6.16;100.00;97957.72;5194595;28;20052;-79
2023/01/16 09:05:01;;;;;;;2.30;0.70;;;6.50;99.90;;;6.14;100.00;97954.25;5197425;28;20038;-80
2023/01/16 09:07:33;;;;;;;1.30;0.70;;;6.40;99.90;;;6.14;100.00;97946.50;5196182;28;20536;-80
2023/01/16 09:10:07;;;;;;;0.95;0.63;;;6.40;99.90;;;6.13;100.00;97941.28;5212768;28;20042;-81
2023/01/16 09:15:29;;;;;;;2.38;0.70;;;6.40;99.90;;;6.12;100.00;97976.63;5196128;28;20041;-81
2023/01/16 09:18:02;;;;;;;2.85;0.80;;;6.40;99.90;;;6.16;100.00;97941.31;5196730;28;20046;-80
2023/01/16 09:20:34;;;;;;;0.93;0.60;;;6.40;99.90;;;6.21;100.00;97934.47;5196721;28;20539;-80
2023/01/16 09:23:07;;;;;;;2.13;0.75;;;6.50;99.90;;;6.21;100.00;97918.94;5198053;28;20042;-80
2023/01/16 09:25:39;;;;;;;0.43;0.40;;;6.50;99.90;;;6.21;100.00;97912.06;5196910;28;20046;-80
2023/01/16 09:28:11;;;;;;;1.33;0.73;;;6.50;99.90;;;6.17;100.00;97912.00;5198142;28;20054;-80
2023/01/16 09:30:43;;;;;;;1.85;0.50;;;6.50;99.90;;;6.16;100.00;97905.97;5198379;28;20042;-80
2023/01/16 09:33:16;;;;;;;1.20;0.63;;;6.40;99.90;;;6.10;100.00;97895.59;5196484;28;20133;-80
2023/01/16 09:35:48;;;;;;;0.73;0.70;;;6.40;99.90;;;6.20;100.00;97894.81;5212499;28;20050;-80
2023/01/16 09:38:21;;;;;;;2.20;0.85;;;6.50;99.90;;;6.17;100.00;97899.09;5195992;28;20138;-80
2023/01/16 09:40:56;;;;;;;1.35;0.50;;;6.40;99.90;;;6.17;100.00;97888.75;5212360;28;20145;-80
2023/01/16 09:43:38;;;;;;;1.15;0.57;;;6.40;99.90;;;6.17;100.00;97880.97;5198065;28;20037;-80
2023/01/16 09:46:15;;;;;;;4.78;0.52;;;6.50;99.90;;;6.20;100.00;97883.59;5196561;28;20049;-80
2023/01/16 09:48:55;;;;;;;2.28;0.55;;;6.50;99.90;;;6.20;100.00;97881.88;5196293;28;20050;-81
2023/01/16 09:51:33;;;;;;;2.38;0.52;;;6.50;99.90;;;6.21;100.00;97880.16;5213088;28;20069;-80
2023/01/16 09:59:56;;;;;;;2.53;0.70;;;6.50;99.90;;;6.24;100.00;97873.25;5198981;28;20041;-80
2023/01/16 10:02:32;;;;;;;1.35;0.70;;;6.50;99.90;;;6.26;100.00;97862.94;5199033;28;20045;-81
2023/01/16 10:05:08;;;;;;;0.60;0.50;;;6.50;99.90;;;6.35;100.00;97854.34;5198166;28;20049;-81
2023/01/16 10:07:58;;;;;;;3.47;0.63;;;6.60;99.90;;;6.29;100.00;97856.91;5214604;28;20057;-80
2023/01/16 10:10:44;;;;;;;2.22;0.57;;;6.60;99.90;;;6.28;100.00;97843.13;5198879;28;20073;-81
2023/01/16 10:13:59;;;;;;;2.55;0.65;;;6.50;99.90;;;6.23;100.00;97849.97;5214980;28;20120;-80
2023/01/16 10:16:44;;;;;;;1.33;0.75;;;6.50;99.90;;;6.22;100.00;97836.19;5214025;28;20471;-82
2023/01/16 10:19:27;;;;;;;0.50;0.32;;;6.50;99.90;;;6.21;100.00;97837.06;5200530;28;20064;-81
2023/01/16 10:22:14;;;;;;;1.52;0.60;;;6.50;99.90;;;6.27;100.00;97819.84;5195418;28;20479;-80
2023/01/16 10:25:01;;;;;;;1.33;0.43;;;6.50;99.90;;;6.29;100.00;97818.13;5211060;28;20046;-80
2023/01/16 10:27:43;;;;;;;1.17;0.50;;;6.50;99.90;;;6.36;100.00;97805.19;5210058;28;20072;-80
2023/01/16 10:30:20;;;;;;;0.88;0.40;;;6.60;99.90;;;6.35;100.00;97802.63;5194721;28;20046;-79
2023/01/16 10:33:01;;;;;;;0.65;0.50;;;6.60;99.90;;;6.36;100.00;97799.16;5194468;28;20049;-80
2023/01/16 10:35:38;;;;;;;0.50;0.50;;;6.60;99.90;;;6.41;100.00;97793.16;5211731;28;20072;-80
2023/01/16 10:38:28;;;;;;;1.25;0.35;;;6.60;99.90;;;6.38;100.00;97789.69;5194231;28;20492;-79
2023/01/16 10:41:00;;;;;;;0.47;0.25;;;6.60;99.90;;;6.38;100.00;97789.69;5204391;28;20056;-81
2023/01/16 10:49:29;;;;;;;0.75;0.43;;;6.60;99.90;;;6.37;100.00;97777.59;5194196;28;20053;-80
2023/01/16 10:52:05;;;;;;;1.13;0.50;;;6.60;99.90;;;6.33;100.00;97762.97;5195215;28;20504;-79
2023/01/16 10:54:39;;;;;;;1.88;0.38;;;6.60;99.90;;;6.38;100.00;97750.88;5195448;28;20054;-80
2023/01/16 10:57:17;;;;;;;0.65;0.57;;;6.60;99.90;;;6.41;100.00;97759.53;5195076;28;20050;-80
2023/01/16 10:59:52;;;;;;;1.25;0.43;;;6.60;99.90;;;6.35;100.00;97751.75;5210814;28;20054;-80
2023/01/16 11:02:32;;;;;;;1.35;0.52;;;6.60;99.90;;;6.30;100.00;97747.41;5196747;28;20535;-80
2023/01/16 11:05:24;;;;;;;0.40;0.40;;;6.60;99.90;;;6.28;100.00;97736.19;5195829;28;20060;-81
2023/01/16 11:08:05;;;;;;;1.35;0.40;;;6.50;99.90;;;6.25;100.00;97735.31;5208947;28;20069;-81
2023/01/16 11:10:40;;;;;;;1.55;0.40;;;6.60;99.90;;;6.25;100.00;97735.31;5189616;28;20447;-82
2023/01/16 11:19:22;;;;;;;1.75;0.77;;;6.80;99.90;;;6.50;100.00;97709.50;5214624;28;20504;-82
2023/01/16 11:21:57;;;;;;;0.85;0.63;;;6.80;99.90;;;6.39;100.00;97695.69;5197183;28;20048;-81
2023/01/16 11:24:33;;;;;;;1.20;0.98;;;6.70;99.90;;;6.32;100.00;97697.41;5192294;28;20053;-81
2023/01/16 11:27:15;;;;;;;0.47;0.40;;;6.70;99.90;;;6.43;100.00;97689.66;5190941;28;20507;-81
2023/01/16 11:29:47;;;;;;;1.15;0.50;;;6.70;99.90;;;6.47;100.00;97674.16;5195445;28;20264;-81
2023/01/16 11:32:24;;;;;;;0.82;0.55;;;6.70;99.90;;;6.48;100.00;97667.25;5194680;28;20073;-81
2023/01/16 11:34:58;;;;;;;0.65;0.60;;;6.70;99.90;;;6.43;100.00;97666.38;5194819;28;20042;-82
2023/01/16 11:37:31;;;;;;;1.27;0.52;;;6.70;99.90;;;6.45;100.00;97662.94;5194594;28;20060;-82
2023/01/16 11:40:06;;;;;;;3.63;0.75;;;6.70;99.90;;;6.41;100.00;97650.88;5195370;28;20057;-82
2023/01/16 11:48:38;;;;;;;1.23;0.43;;;6.70;99.90;;;6.33;100.00;97642.25;5212299;28;20137;-81
2023/01/16 11:51:15;;;;;;;0.63;0.52;;;6.60;99.90;;;6.31;100.00;97638.78;5211256;28;20144;-82
2023/01/16 11:53:49;;;;;;;0.45;0.40;;;6.60;99.90;;;6.29;100.00;97627.56;5198317;28;20591;-83
2023/01/16 11:56:47;;;;;;;1.23;0.75;;;6.60;99.90;;;6.32;100.00;97647.38;5182275;28;20050;-83